createdAt,value
2023-04-25T00:01:34.808Z,75.43
2023-04-25T00:04:02.033Z,75.58
2023-04-25T00:06:29.299Z,74.43
2023-04-25T00:09:01.293Z,76.53
2023-04-25T00:11:28.167Z,76.41
2023-04-25T00:13:55.481Z,73.64
2023-04-25T00:16:22.375Z,72.95
2023-04-25T00:18:52.471Z,72.99
2023-04-25T00:21:20.997Z,71.73
2023-04-25T00:23:48.504Z,72.80
2023-04-25T00:26:15.455Z,71.75
2023-04-25T00:28:52.680Z,72.21
2023-04-25T00:31:19.710Z,71.16
2023-04-25T00:33:46.618Z,70.76
2023-04-25T00:36:13.542Z,69.47
2023-04-25T00:38:44.547Z,67.97
2023-04-25T00:41:11.464Z,71.17
2023-04-25T00:43:38.596Z,69.02
2023-04-25T00:46:05.504Z,67.83
2023-04-25T00:48:50.852Z,66.20
2023-04-25T00:51:21.581Z,68.65
2023-04-25T00:53:51.070Z,69.01
2023-04-25T00:56:18.437Z,70.75
2023-04-25T00:58:49.395Z,67.50
2023-04-25T01:01:16.340Z,69.37
2023-04-25T01:03:44.081Z,68.25
2023-04-25T01:06:11.663Z,67.86
2023-04-25T01:08:54.979Z,66.72
2023-04-25T01:11:21.838Z,66.53
2023-04-25T01:13:49.219Z,66.55
2023-04-25T01:16:16.496Z,63.38
2023-04-25T01:19:14.663Z,64.36
2023-04-25T01:21:41.814Z,64.62
2023-04-25T01:24:09.114Z,64.25
2023-04-25T01:26:36.856Z,65.93
2023-04-25T01:32:45.566Z,64.25
2023-04-25T01:35:13.332Z,65.35
2023-04-25T01:38:30.023Z,65.94
2023-04-25T01:40:57.416Z,66.38
2023-04-25T01:43:24.505Z,63.49
2023-04-25T01:45:52.769Z,65.16
2023-04-25T01:48:43.380Z,64.41
2023-04-25T01:51:11.006Z,64.55
2023-04-25T01:53:37.860Z,64.12
2023-04-25T01:56:05.158Z,67.34
2023-04-25T01:58:36.105Z,65.37
2023-04-25T02:01:03.425Z,64.65
2023-04-25T02:03:32.498Z,62.32
2023-04-25T02:05:59.585Z,61.76
2023-04-25T02:08:50.555Z,64.55
2023-04-25T02:11:17.895Z,66.01
2023-04-25T02:13:44.521Z,63.49
2023-04-25T02:16:11.467Z,66.33
2023-04-25T02:18:49.597Z,64.32
2023-04-25T02:21:16.484Z,64.97
2023-04-25T02:23:43.365Z,64.91
2023-04-25T02:26:10.230Z,65.55
2023-04-25T02:29:05.996Z,65.65
2023-04-25T02:31:32.997Z,64.86
2023-04-25T02:33:59.863Z,65.59
2023-04-25T02:36:27.413Z,66.00
2023-04-25T02:39:11.668Z,65.61
2023-04-25T02:41:38.627Z,64.54
2023-04-25T02:44:05.570Z,66.23
2023-04-25T02:46:39.615Z,64.85
2023-04-25T02:49:23.954Z,64.66
2023-04-25T02:51:50.911Z,65.42
2023-04-25T02:54:17.832Z,65.72
2023-04-25T02:56:44.669Z,67.18
2023-04-25T02:59:13.382Z,65.59
2023-04-25T03:01:40.257Z,65.76
2023-04-25T03:04:07.141Z,65.52
2023-04-25T03:06:34.101Z,66.19
2023-04-25T03:09:08.869Z,65.79
2023-04-25T03:11:35.843Z,66.07
2023-04-25T03:14:02.678Z,66.29
2023-04-25T03:16:29.436Z,66.82
2023-04-25T03:19:21.656Z,66.82
2023-04-25T03:21:48.782Z,64.36
2023-04-25T03:24:15.661Z,65.94
2023-04-25T03:26:42.491Z,65.52
2023-04-25T03:29:17.384Z,65.34
2023-04-25T03:31:44.379Z,66.11
2023-04-25T03:34:11.355Z,65.14
2023-04-25T03:36:39.179Z,66.84
2023-04-25T03:39:20.723Z,68.34
2023-04-25T03:41:47.721Z,64.63
2023-04-25T03:44:14.990Z,65.43
2023-04-25T03:46:41.866Z,65.16
2023-04-25T03:49:28.265Z,65.43
2023-04-25T03:51:55.148Z,66.90
2023-04-25T03:54:22.097Z,64.63
2023-04-25T03:56:49.746Z,68.38
2023-04-25T03:59:39.340Z,67.28
2023-04-25T04:02:06.318Z,65.26
2023-04-25T04:04:33.493Z,64.49
2023-04-25T04:07:00.898Z,65.07
2023-04-25T04:09:45.610Z,66.89
2023-04-25T04:12:12.479Z,64.74
2023-04-25T04:14:39.331Z,64.94
2023-04-25T04:17:07.152Z,62.13
2023-04-25T04:19:40.861Z,63.48
2023-04-25T04:22:07.713Z,64.88
2023-04-25T04:24:34.595Z,64.79
2023-04-25T04:27:01.444Z,64.82
2023-04-25T04:33:34.488Z,60.56
2023-04-25T04:36:02.030Z,60.57
2023-04-25T04:38:42.091Z,60.58
2023-04-25T04:41:09.427Z,60.31
2023-04-25T04:43:36.302Z,59.76
2023-04-25T04:46:04.663Z,62.03
2023-04-25T04:48:51.112Z,62.53
2023-04-25T04:51:17.989Z,61.03
2023-04-25T04:53:44.852Z,61.50
2023-04-25T04:56:11.710Z,66.79
2023-04-25T04:58:39.574Z,63.13
2023-04-25T05:01:06.460Z,61.09
2023-04-25T05:03:33.451Z,62.43
2023-04-25T05:06:00.370Z,61.43
2023-04-25T05:08:29.047Z,60.69
2023-04-25T05:10:55.994Z,60.84
2023-04-25T05:13:22.862Z,61.01
2023-04-25T05:15:49.717Z,61.87
2023-04-25T05:18:18.617Z,62.74
2023-04-25T05:20:45.629Z,62.75
2023-04-25T05:23:12.470Z,61.43
2023-04-25T05:25:39.342Z,61.06
2023-04-25T05:28:29.040Z,60.51
2023-04-25T05:30:55.937Z,60.94
2023-04-25T05:33:22.856Z,61.83
2023-04-25T05:35:49.791Z,62.55
2023-04-25T05:38:29.194Z,60.62
2023-04-25T05:40:56.041Z,62.28
2023-04-25T05:43:22.885Z,60.74
2023-04-25T05:45:49.828Z,61.84
2023-04-25T05:48:18.700Z,61.52
2023-04-25T05:50:45.599Z,62.08
2023-04-25T05:53:12.506Z,60.82
2023-04-25T05:55:39.382Z,59.76
2023-04-25T05:58:28.062Z,61.18
2023-04-25T06:00:55.434Z,60.83
2023-04-25T06:03:22.604Z,60.56
2023-04-25T06:05:49.765Z,60.53
2023-04-25T06:08:16.720Z,60.64
2023-04-25T06:10:43.790Z,60.06
2023-04-25T06:13:10.674Z,61.37
2023-04-25T06:15:37.567Z,60.81
2023-04-25T06:18:04.588Z,59.21
2023-04-25T06:20:31.551Z,59.44
2023-04-25T06:22:58.474Z,58.45
2023-04-25T06:25:25.435Z,57.51
2023-04-25T06:27:52.392Z,59.16
2023-04-25T06:30:23.630Z,56.89
2023-04-25T06:32:50.791Z,58.79
2023-04-25T06:35:17.894Z,57.36
2023-04-25T06:37:44.862Z,54.37
2023-04-25T06:40:14.681Z,57.35
2023-04-25T06:42:50.608Z,56.42
2023-04-25T06:45:32.722Z,57.86
2023-04-25T06:48:00.164Z,57.29
2023-04-25T06:50:27.487Z,58.23
2023-04-25T06:52:56.503Z,56.38
2023-04-25T06:55:23.387Z,58.38
2023-04-25T06:57:50.304Z,56.26
2023-04-25T07:00:17.634Z,55.95
2023-04-25T07:02:44.883Z,56.04
2023-04-25T07:05:11.969Z,55.67
2023-04-25T07:07:54.261Z,56.58
2023-04-25T07:10:22.508Z,56.00
2023-04-25T07:12:49.444Z,55.46
2023-04-25T07:15:16.465Z,58.51
2023-04-25T07:17:43.610Z,58.93
2023-04-25T07:20:17.394Z,56.47
2023-04-25T07:22:49.943Z,54.43
2023-04-25T07:25:21.919Z,55.79
2023-04-25T07:30:33.002Z,56.82
2023-04-25T07:33:36.997Z,54.59
2023-04-25T07:36:08.400Z,54.26
2023-04-25T07:38:37.880Z,57.05
2023-04-25T07:41:05.060Z,57.42
2023-04-25T07:43:34.327Z,55.98
2023-04-25T07:46:01.302Z,53.39
2023-04-25T07:48:28.228Z,52.63
2023-04-25T07:50:58.774Z,51.83
2023-04-25T07:53:25.819Z,52.42
2023-04-25T07:55:52.828Z,54.75
2023-04-25T07:58:22.965Z,52.87
2023-04-25T08:00:50.331Z,52.44
2023-04-25T08:03:17.451Z,53.51
2023-04-25T08:05:44.805Z,51.40
2023-04-25T08:08:11.760Z,49.65
2023-04-25T08:10:38.648Z,49.84
2023-04-25T08:13:05.548Z,51.62
2023-04-25T08:15:32.629Z,50.51
2023-04-25T08:18:00.694Z,50.10
2023-04-25T08:20:30.726Z,50.29
2023-04-25T08:22:57.720Z,46.34
2023-04-25T08:25:24.579Z,48.42
2023-04-25T08:27:51.804Z,47.91
2023-04-25T08:30:18.643Z,47.94
2023-04-25T08:32:45.548Z,46.91
2023-04-25T08:35:12.544Z,49.70
2023-04-25T08:37:39.478Z,48.96
2023-04-25T08:40:08.292Z,51.57
2023-04-25T08:42:36.580Z,50.63
2023-04-25T08:45:07.096Z,48.29
2023-04-25T08:47:35.859Z,49.71
2023-04-25T08:50:08.036Z,47.98
2023-04-25T08:52:39.279Z,48.04
2023-04-25T08:55:09.591Z,48.21
2023-04-25T08:57:38.014Z,45.51
2023-04-25T09:00:05.472Z,45.32
2023-04-25T09:02:32.566Z,45.84
2023-04-25T09:04:59.822Z,45.71
2023-04-25T09:07:26.954Z,43.05
2023-04-25T09:09:53.805Z,43.41
2023-04-25T09:12:21.601Z,44.43
2023-04-25T09:15:12.360Z,43.31
2023-04-25T09:17:41.605Z,42.51
2023-04-25T09:20:13.987Z,43.38
2023-04-25T09:22:41.143Z,39.55
2023-04-25T09:25:12.964Z,40.46
2023-04-25T09:27:53.351Z,39.39
2023-04-25T09:30:20.573Z,37.62
2023-04-25T09:32:48.463Z,37.14
2023-04-25T09:35:26.514Z,36.62
2023-04-25T09:37:53.404Z,37.48
2023-04-25T09:40:20.615Z,36.75
2023-04-25T09:42:47.571Z,34.78
2023-04-25T09:45:16.258Z,35.62
2023-04-25T09:47:45.156Z,38.70
2023-04-25T09:50:20.489Z,37.56
2023-04-25T09:52:47.459Z,37.93
2023-04-25T09:55:14.415Z,36.56
2023-04-25T09:57:42.279Z,37.32
2023-04-25T10:00:13.417Z,40.55
2023-04-25T10:02:44.140Z,39.53
2023-04-25T10:05:11.862Z,39.99
2023-04-25T10:07:39.641Z,38.34
2023-04-25T10:10:07.188Z,39.08
2023-04-25T10:12:35.674Z,37.06
2023-04-25T10:15:04.293Z,39.37
2023-04-25T10:17:31.376Z,39.46
2023-04-25T10:19:58.814Z,39.64
2023-04-25T10:22:34.353Z,38.22
2023-04-25T10:25:02.137Z,38.87
2023-04-25T10:27:29.553Z,40.59
2023-04-25T10:30:16.615Z,38.73
2023-04-25T10:32:44.250Z,38.64
2023-04-25T10:35:17.928Z,37.36
2023-04-25T10:38:07.434Z,36.60
2023-04-25T10:40:34.736Z,35.19
2023-04-25T10:43:32.786Z,36.60
2023-04-25T10:46:02.970Z,38.47
2023-04-25T10:48:33.181Z,36.53
2023-04-25T10:51:10.515Z,37.93
2023-04-25T10:53:39.699Z,37.93
2023-04-25T10:56:20.596Z,40.34
2023-04-25T10:58:48.673Z,42.00
2023-04-25T11:01:21.960Z,40.48
2023-04-25T11:03:51.889Z,39.52
2023-04-25T11:06:29.262Z,38.76
2023-04-25T11:08:56.172Z,37.73
2023-04-25T11:11:23.077Z,38.38
2023-04-25T11:13:51.064Z,36.09
2023-04-25T11:16:27.457Z,34.46
2023-04-25T11:18:58.598Z,33.71
2023-04-25T11:21:29.051Z,34.50
2023-04-25T11:23:57.860Z,34.59
2023-04-25T11:26:26.121Z,34.57
2023-04-25T11:28:53.374Z,35.50
2023-04-25T11:31:23.647Z,35.55
2023-04-25T11:33:50.934Z,34.97
2023-04-25T11:36:18.000Z,32.10
2023-04-25T11:38:44.918Z,33.69
2023-04-25T11:41:12.723Z,33.07
2023-04-25T11:43:40.792Z,34.77
2023-04-25T11:46:09.291Z,32.46
2023-04-25T11:48:43.683Z,33.66
2023-04-25T11:51:10.675Z,34.33
2023-04-25T11:53:37.563Z,33.46
2023-04-25T11:56:11.470Z,33.14
2023-04-25T11:59:01.919Z,32.22
2023-04-25T12:01:35.335Z,31.31
2023-04-25T12:04:14.392Z,32.54
2023-04-25T12:06:43.658Z,35.19
2023-04-25T12:09:17.039Z,37.17
2023-04-25T12:11:45.388Z,39.10
2023-04-25T12:14:13.056Z,36.67
2023-04-25T12:16:47.675Z,35.26
2023-04-25T12:19:18.260Z,37.16
2023-04-25T12:21:57.210Z,36.22
2023-04-25T12:24:28.571Z,32.84
2023-04-25T12:27:03.494Z,33.23
2023-04-25T12:29:42.002Z,34.77
2023-04-25T12:32:16.604Z,33.58
2023-04-25T12:34:43.760Z,33.02
2023-04-25T12:37:11.620Z,30.95
2023-04-25T12:39:38.704Z,32.62
2023-04-25T12:42:09.294Z,31.13
2023-04-25T12:44:36.781Z,30.32
2023-04-25T12:47:04.603Z,31.41
2023-04-25T12:49:31.705Z,31.59
2023-04-25T12:51:58.815Z,31.49
2023-04-25T12:54:26.713Z,34.60
2023-04-25T12:56:53.848Z,32.86
2023-04-25T12:59:21.677Z,33.47
2023-04-25T13:01:48.846Z,33.44
2023-04-25T13:04:16.464Z,32.68
2023-04-25T13:06:43.701Z,31.93
2023-04-25T13:09:10.729Z,31.50
2023-04-25T13:11:37.618Z,30.32
2023-04-25T13:14:04.613Z,30.83
2023-04-25T13:16:31.700Z,31.53
2023-04-25T13:18:59.402Z,29.51
2023-04-25T13:21:26.715Z,30.70
2023-04-25T13:23:53.949Z,29.89
2023-04-25T13:26:21.386Z,28.58
2023-04-25T13:28:48.331Z,29.92
2023-04-25T13:31:15.205Z,29.91
2023-04-25T13:33:42.106Z,32.00
2023-04-25T13:36:09.221Z,31.02
2023-04-25T13:38:36.143Z,31.21
2023-04-25T13:41:03.009Z,33.81
2023-04-25T13:43:29.936Z,33.45
2023-04-25T13:45:56.945Z,33.17
2023-04-25T13:48:25.216Z,33.16
2023-04-25T13:50:52.079Z,34.52
2023-04-25T13:53:19.050Z,34.04
2023-04-25T13:55:46.100Z,35.73
2023-04-25T13:58:13.003Z,37.39
2023-04-25T14:00:40.715Z,39.27
2023-04-25T14:03:09.323Z,40.38
2023-04-25T14:05:40.530Z,40.73
2023-04-25T14:08:08.775Z,41.06
2023-04-25T14:10:36.349Z,38.45
2023-04-25T14:13:04.557Z,37.96
2023-04-25T14:15:33.600Z,37.66
2023-04-25T14:18:01.884Z,38.79
2023-04-25T14:20:29.162Z,40.75
2023-04-25T14:22:57.241Z,41.94
2023-04-25T14:25:24.765Z,41.33
2023-04-25T14:27:51.849Z,43.20
2023-04-25T14:30:22.137Z,43.87
2023-04-25T14:32:50.701Z,45.19
2023-04-25T14:35:18.128Z,47.24
2023-04-25T14:37:45.253Z,47.06
2023-04-25T14:40:14.203Z,48.71
2023-04-25T14:42:41.442Z,48.20
2023-04-25T14:45:09.828Z,50.15
2023-04-25T14:47:38.262Z,56.15
2023-04-25T14:50:06.317Z,62.08
2023-04-25T14:52:33.308Z,63.91
2023-04-25T14:55:03.169Z,63.95
2023-04-25T14:57:30.040Z,60.85
2023-04-25T14:59:56.947Z,56.76
2023-04-25T15:02:25.330Z,53.69
2023-04-25T15:04:52.382Z,52.21
2023-04-25T15:07:19.306Z,50.14
2023-04-25T15:09:46.204Z,49.65
2023-04-25T15:12:13.427Z,48.03
2023-04-25T15:14:40.336Z,47.00
2023-04-25T15:17:07.724Z,45.47
2023-04-25T15:19:34.617Z,46.59
2023-04-25T15:22:04.676Z,45.75
2023-04-25T15:24:31.777Z,47.66
2023-04-25T15:26:59.496Z,46.43
2023-04-25T15:29:27.379Z,48.23
2023-04-25T15:31:54.508Z,47.71
2023-04-25T15:34:21.651Z,49.41
2023-04-25T15:36:48.741Z,51.31
2023-04-25T15:39:15.694Z,48.09
2023-04-25T15:41:42.580Z,46.24
2023-04-25T15:44:11.255Z,48.65
2023-04-25T15:46:38.654Z,44.33
2023-04-25T15:49:05.626Z,43.87
2023-04-25T15:51:33.877Z,44.60
2023-04-25T15:54:02.639Z,44.36
2023-04-25T15:56:29.729Z,45.41
2023-04-25T15:58:56.658Z,44.59
2023-04-25T16:01:24.770Z,43.66
2023-04-25T16:03:53.364Z,45.57
2023-04-25T16:06:20.598Z,44.58
2023-04-25T16:08:47.608Z,46.26
2023-04-25T16:11:14.975Z,46.53
2023-04-25T16:13:41.882Z,47.47
2023-04-25T16:16:08.915Z,48.16
2023-04-25T16:18:35.981Z,47.03
2023-04-25T16:21:03.655Z,45.29
2023-04-25T16:23:31.475Z,45.04
2023-04-25T16:25:58.355Z,46.74
2023-04-25T16:28:25.570Z,46.94
2023-04-25T16:30:52.426Z,46.04
2023-04-25T16:33:19.391Z,46.48
2023-04-25T16:35:46.254Z,46.84
2023-04-25T16:38:13.137Z,45.20
2023-04-25T16:40:40.336Z,44.07
2023-04-25T16:43:07.200Z,40.45
2023-04-25T16:45:34.093Z,41.89
2023-04-25T16:48:00.973Z,40.46
2023-04-25T16:50:27.939Z,39.95
2023-04-25T16:52:54.809Z,41.61
2023-04-25T16:55:21.719Z,40.72
2023-04-25T16:57:48.619Z,41.48
2023-04-25T17:00:16.254Z,40.29
2023-04-25T17:02:43.686Z,41.21
2023-04-25T17:05:10.899Z,40.59
2023-04-25T17:07:37.795Z,40.72
2023-04-25T17:10:05.350Z,40.71
2023-04-25T17:12:32.240Z,40.39
2023-04-25T17:15:00.550Z,42.41
2023-04-25T17:17:28.003Z,40.51
2023-04-25T17:19:55.184Z,40.63
2023-04-25T17:22:22.547Z,42.86
2023-04-25T17:24:49.839Z,43.62
2023-04-25T17:27:16.885Z,44.36
2023-04-25T17:29:43.802Z,42.49
2023-04-25T17:32:10.875Z,45.95
2023-04-25T17:34:40.213Z,48.15
2023-04-25T17:37:09.766Z,48.24
2023-04-25T17:39:37.020Z,47.56
2023-04-25T17:42:04.049Z,44.90
2023-04-25T17:44:31.157Z,47.02
2023-04-25T17:46:58.073Z,47.53
2023-04-25T17:49:24.934Z,49.78
2023-04-25T17:51:51.838Z,48.01
2023-04-25T17:54:19.017Z,49.11
2023-04-25T17:56:48.751Z,49.28
2023-04-25T17:59:15.592Z,48.98
2023-04-25T18:01:47.655Z,48.81
2023-04-25T18:04:15.064Z,50.14
2023-04-25T18:06:41.902Z,49.36
2023-04-25T18:09:16.205Z,49.08
2023-04-25T18:11:46.731Z,49.74
2023-04-25T18:14:14.737Z,50.80
2023-04-25T18:16:45.081Z,50.79
2023-04-25T18:19:12.113Z,52.47
2023-04-25T18:21:39.213Z,50.74
2023-04-25T18:24:08.704Z,50.77
2023-04-25T18:26:35.952Z,51.65
2023-04-25T18:29:04.065Z,51.39
2023-04-25T18:31:32.310Z,53.01
2023-04-25T18:34:02.671Z,52.75
2023-04-25T18:36:29.736Z,53.70
2023-04-25T18:38:59.523Z,52.06
2023-04-25T18:41:51.928Z,54.70
2023-04-25T18:44:16.526Z,54.91
2023-04-25T18:46:50.470Z,55.30
2023-04-25T18:49:17.318Z,54.57
2023-04-25T18:51:44.407Z,55.01
2023-04-25T18:54:12.150Z,55.54
2023-04-25T18:56:41.822Z,54.46
2023-04-25T18:59:08.651Z,53.28
2023-04-25T19:01:35.724Z,54.81
2023-04-25T19:04:05.164Z,55.97
2023-04-25T19:06:33.651Z,55.69
2023-04-25T19:09:00.520Z,55.53
2023-04-25T19:11:27.441Z,56.98
2023-04-25T19:13:57.380Z,53.08
2023-04-25T19:16:26.507Z,54.99
2023-04-25T19:18:56.459Z,53.35
2023-04-25T19:21:23.807Z,53.56
2023-04-25T19:23:52.973Z,54.25
2023-04-25T19:26:20.928Z,53.37
2023-04-25T19:28:47.992Z,53.33
2023-04-25T19:31:14.952Z,53.49
2023-04-25T19:33:42.401Z,53.28
2023-04-25T19:36:09.257Z,53.58
2023-04-25T19:38:36.279Z,51.84
2023-04-25T19:41:03.127Z,50.99
2023-04-25T19:43:30.971Z,50.43
2023-04-25T19:45:58.095Z,51.14
2023-04-25T19:48:25.073Z,52.04
2023-04-25T19:50:52.148Z,52.42
2023-04-25T19:53:19.001Z,52.77
2023-04-25T19:55:45.860Z,51.72
2023-04-25T19:58:14.518Z,52.54
2023-04-25T20:00:41.451Z,53.14
2023-04-25T20:03:10.778Z,55.21
2023-04-25T20:05:37.879Z,55.33
2023-04-25T20:08:04.812Z,57.80
2023-04-25T20:10:31.989Z,54.48
2023-04-25T20:12:58.854Z,53.67
2023-04-25T20:15:25.814Z,53.00
2023-04-25T20:17:52.825Z,55.01
2023-04-25T20:20:20.289Z,56.35
2023-04-25T20:22:47.163Z,55.99
2023-04-25T20:25:14.088Z,57.01
2023-04-25T20:27:41.060Z,60.63
2023-04-25T20:30:09.382Z,60.83
2023-04-25T20:32:37.248Z,59.27
2023-04-25T20:35:05.743Z,57.63
2023-04-25T20:37:32.929Z,57.43
2023-04-25T20:40:01.053Z,56.38
2023-04-25T20:42:28.221Z,57.38
2023-04-25T20:44:55.324Z,55.95
2023-04-25T20:47:22.546Z,58.01
2023-04-25T20:49:50.083Z,61.36
2023-04-25T20:52:17.378Z,61.91
2023-04-25T20:54:50.382Z,64.82
2023-04-25T20:57:17.732Z,64.12
2023-04-25T20:59:44.956Z,64.24
2023-04-25T21:02:15.882Z,63.92
2023-04-25T21:04:44.426Z,65.20
2023-04-25T21:07:14.979Z,62.51
2023-04-25T21:09:43.077Z,63.74
2023-04-25T21:12:09.948Z,59.47
2023-04-25T21:14:36.826Z,62.71
2023-04-25T21:17:04.569Z,59.42
2023-04-25T21:19:31.728Z,59.69
2023-04-25T21:21:58.896Z,59.49
2023-04-25T21:24:27.357Z,63.62
2023-04-25T21:26:54.362Z,62.37
2023-04-25T21:29:21.227Z,59.12
2023-04-25T21:31:48.355Z,56.77
2023-04-25T21:34:15.266Z,62.20
2023-04-25T21:36:42.307Z,60.54
2023-04-25T21:39:10.924Z,61.82
2023-04-25T21:41:38.138Z,61.83
2023-04-25T21:44:05.066Z,59.89
2023-04-25T21:46:32.013Z,62.63
2023-04-25T21:48:59.025Z,64.46
2023-04-25T21:51:25.920Z,65.00
2023-04-25T21:53:53.082Z,67.47
2023-04-25T21:56:19.914Z,65.31
2023-04-25T21:58:46.565Z,69.32
2023-04-25T22:01:13.488Z,70.37
2023-04-25T22:03:40.707Z,71.86
2023-04-25T22:06:07.800Z,67.49
2023-04-25T22:08:34.679Z,67.01
2023-04-25T22:11:02.963Z,65.42
2023-04-25T22:13:30.059Z,70.17
2023-04-25T22:15:57.096Z,69.28
2023-04-25T22:18:24.008Z,69.07
2023-04-25T22:20:50.937Z,69.34
2023-04-25T22:23:17.860Z,69.31
2023-04-25T22:25:45.006Z,72.29
2023-04-25T22:28:13.181Z,68.74
2023-04-25T22:30:40.049Z,66.49
2023-04-25T22:33:07.158Z,74.22
2023-04-25T22:35:34.198Z,73.62
2023-04-25T22:38:01.747Z,71.65
2023-04-25T22:40:28.675Z,73.44
2023-04-25T22:42:55.585Z,72.12
2023-04-25T22:45:22.436Z,74.36
2023-04-25T22:47:49.370Z,74.54
2023-04-25T22:50:17.237Z,74.10
2023-04-25T22:52:44.229Z,77.96
2023-04-25T22:55:12.524Z,77.28
2023-04-25T22:57:39.787Z,78.23
2023-04-25T23:00:16.163Z,77.29
2023-04-25T23:02:46.226Z,78.42
2023-04-25T23:05:13.731Z,73.65
2023-04-25T23:07:40.749Z,75.82
2023-04-25T23:10:08.677Z,79.00
2023-04-25T23:12:35.712Z,80.09
2023-04-25T23:15:05.154Z,80.37
2023-04-25T23:17:32.271Z,79.06
2023-04-25T23:19:59.338Z,78.47
2023-04-25T23:22:26.275Z,79.83
2023-04-25T23:24:53.208Z,76.92
2023-04-25T23:27:20.168Z,78.72
2023-04-25T23:29:53.468Z,75.91
2023-04-25T23:32:20.786Z,76.53
2023-04-25T23:34:47.690Z,74.21
2023-04-25T23:37:14.542Z,76.62
2023-04-25T23:39:41.492Z,75.26
2023-04-25T23:42:08.349Z,75.11
2023-04-25T23:44:35.061Z,75.52
2023-04-25T23:47:02.007Z,75.51
2023-04-25T23:49:28.875Z,76.11
2023-04-25T23:51:55.704Z,78.97
2023-04-25T23:54:22.411Z,81.80
2023-04-25T23:56:49.248Z,78.67
2023-04-25T23:59:16.343Z,78.88
